Time;durP1;ratioP1;P1;durP2;ratioP2;P2;SDS_P1;SDS_P2;PMS_P1;PMS_P2;Temp;Humidity;BMP_temperature;BMP_pressure;BME280_temperature;BME280_humidity;BME280_pressure;Samples;Min_cycle;Max_cycle;Signal;HPM_P1;HPM_P2
2023/11/27 00:31:35;;;;;;;6.07;3.28;;;31.10;97.80;;;;;;4714473;27;10001414;-67
2023/11/27 00:34:02;;;;;;;11.07;5.72;;;31.10;97.50;;;;;;5064546;28;20016;-67
2023/11/27 00:36:29;;;;;;;7.38;3.13;;;30.90;97.20;;;;;;5066460;28;20024;-67
2023/11/27 00:38:57;;;;;;;6.85;2.33;;;30.80;98.40;;;;;;5072852;22;20072;-67
2023/11/27 00:41:24;;;;;;;7.82;2.30;;;30.50;99.10;;;;;;5021462;28;20040;-67
2023/11/27 00:43:52;;;;;;;7.53;2.80;;;30.00;99.70;;;;;;5028544;28;20069;-68
2023/11/27 00:46:19;;;;;;;8.35;6.03;;;29.50;99.90;;;;;;5021441;28;20018;-68
2023/11/27 00:48:47;;;;;;;8.40;3.65;;;29.60;99.90;;;;;;5024331;28;20129;-67
2023/11/27 00:51:14;;;;;;;6.22;2.40;;;30.00;99.90;;;;;;5021657;28;20076;-68
2023/11/27 00:53:40;;;;;;;7.93;2.92;;;29.70;99.90;;;;;;5021419;28;20022;-67
2023/11/27 00:56:08;;;;;;;8.80;4.45;;;29.60;99.90;;;;;;5022151;28;20639;-67
2023/11/27 00:58:35;;;;;;;7.28;2.85;;;30.10;99.90;;;;;;5027042;28;20575;-67
2023/11/27 01:01:03;;;;;;;6.38;2.33;;;30.20;99.90;;;;;;5020034;28;20032;-68
2023/11/27 01:03:30;;;;;;;5.53;2.40;;;30.30;99.90;;;;;;5020000;28;20030;-68
2023/11/27 01:05:57;;;;;;;9.75;2.60;;;30.10;99.90;;;;;;5022727;28;20075;-67
2023/11/27 01:08:24;;;;;;;7.05;2.58;;;29.70;99.90;;;;;;5030561;28;20028;-70
2023/11/27 01:10:51;;;;;;;3.60;2.00;;;29.50;99.90;;;;;;5018612;28;20048;-69
2023/11/27 01:13:19;;;;;;;6.35;2.65;;;30.00;99.40;;;;;;5022913;28;20033;-68
2023/11/27 01:15:46;;;;;;;5.75;2.33;;;30.20;99.00;;;;;;5017333;28;20033;-68
2023/11/27 01:18:13;;;;;;;6.70;3.08;;;30.60;99.90;;;;;;5021913;28;20026;-66
2023/11/27 01:20:40;;;;;;;7.20;2.65;;;30.80;99.40;;;;;;5023482;28;20037;-69
2023/11/27 01:23:07;;;;;;;7.15;2.50;;;30.50;99.50;;;;;;5023539;28;20983;-69
2023/11/27 01:25:36;;;;;;;7.43;2.13;;;30.60;99.20;;;;;;5023739;28;20048;-70
2023/11/27 01:28:03;;;;;;;7.75;2.45;;;30.60;99.40;;;;;;5024005;28;20040;-68
2023/11/27 01:30:30;;;;;;;5.93;1.90;;;30.50;98.70;;;;;;5021377;28;20052;-69
2023/11/27 01:32:57;;;;;;;7.45;2.63;;;30.70;98.50;;;;;;5022410;28;20040;-69
2023/11/27 01:35:24;;;;;;;7.88;2.85;;;31.10;98.70;;;;;;5022674;28;20133;-70
2023/11/27 01:37:51;;;;;;;9.50;3.38;;;30.80;98.40;;;;;;5025898;28;20548;-69
2023/11/27 01:40:18;;;;;;;9.40;3.55;;;30.70;98.30;;;;;;5017898;28;20100;-69
2023/11/27 01:42:45;;;;;;;6.20;2.70;;;30.30;99.00;;;;;;5007040;28;20046;-69
2023/11/27 01:45:12;;;;;;;4.65;2.47;;;30.40;99.50;;;;;;5009572;28;20036;-68
2023/11/27 01:47:39;;;;;;;9.90;3.45;;;30.70;99.20;;;;;;5015429;28;20030;-69
2023/11/27 01:50:10;;;;;;;8.60;2.65;;;31.20;98.20;;;;;;5009861;28;20029;-69
2023/11/27 01:52:39;;;;;;;4.22;2.08;;;31.80;98.00;;;;;;5007054;28;20038;-69
2023/11/27 01:55:08;;;;;;;3.85;2.08;;;31.90;97.30;;;;;;5010833;28;20768;-68
2023/11/27 01:57:36;;;;;;;6.18;1.90;;;31.90;97.40;;;;;;5004057;28;20035;-68
2023/11/27 02:00:07;;;;;;;6.30;2.15;;;32.10;97.40;;;;;;5011587;28;20022;-70
2023/11/27 02:02:34;;;;;;;6.00;2.30;;;31.50;97.80;;;;;;5010185;28;20026;-66
2023/11/27 02:05:01;;;;;;;4.30;1.98;;;30.80;98.20;;;;;;5009089;28;20030;-69
2023/11/27 02:07:28;;;;;;;6.68;2.53;;;30.10;98.50;;;;;;5013049;28;20092;-72
2023/11/27 02:09:55;;;;;;;6.57;2.60;;;29.60;99.40;;;;;;5009692;28;20025;-68
2023/11/27 02:12:22;;;;;;;6.85;2.33;;;29.60;99.20;;;;;;5010922;28;20037;-71
2023/11/27 02:14:52;;;;;;;6.55;2.38;;;29.70;99.40;;;;;;5005622;28;20168;-68
2023/11/27 02:17:19;;;;;;;4.90;1.98;;;30.20;98.90;;;;;;5009537;28;20401;-71
2023/11/27 02:19:46;;;;;;;9.15;2.65;;;30.60;99.10;;;;;;5014362;28;20053;-72
2023/11/27 02:22:13;;;;;;;6.88;2.30;;;31.10;98.20;;;;;;5009864;28;20081;-71
2023/11/27 02:24:41;;;;;;;7.72;2.30;;;31.10;97.80;;;;;;5006857;28;20730;-71
2023/11/27 02:27:08;;;;;;;4.43;2.20;;;31.00;97.80;;;;;;5008534;28;20069;-72
2023/11/27 02:29:35;;;;;;;9.65;2.17;;;30.20;98.50;;;;;;5002702;28;20064;-71
2023/11/27 02:32:04;;;;;;;5.32;2.10;;;30.00;98.90;;;;;;5006490;28;20083;-73
2023/11/27 02:34:31;;;;;;;7.22;2.25;;;30.20;99.50;;;;;;5008369;28;20018;-70
2023/11/27 02:36:58;;;;;;;6.82;2.17;;;30.40;98.50;;;;;;5008592;28;20014;-71
2023/11/27 02:39:25;;;;;;;7.78;2.33;;;30.90;98.40;;;;;;5010991;28;20050;-70
2023/11/27 02:41:53;;;;;;;6.28;2.28;;;31.80;97.60;;;;;;5009725;28;20018;-71
2023/11/27 02:44:20;;;;;;;6.97;2.70;;;31.90;97.40;;;;;;5011511;28;20057;-69
2023/11/27 02:46:47;;;;;;;7.55;2.33;;;31.30;97.40;;;;;;5015320;28;20064;-69
2023/11/27 02:49:14;;;;;;;7.40;2.00;;;30.60;97.90;;;;;;5011314;28;20049;-73
2023/11/27 02:51:41;;;;;;;6.85;2.20;;;30.20;98.60;;;;;;5009705;28;20018;-72
2023/11/27 02:54:10;;;;;;;6.57;2.40;;;30.40;98.60;;;;;;5006241;28;20073;-69
2023/11/27 02:56:37;;;;;;;3.47;1.90;;;31.00;98.60;;;;;;5015848;28;20029;-71
2023/11/27 02:59:03;;;;;;;4.82;2.20;;;31.60;97.50;;;;;;5008776;28;20108;-67
2023/11/27 03:01:30;;;;;;;5.07;1.90;;;31.10;98.40;;;;;;5005629;28;20021;-68
2023/11/27 03:03:57;;;;;;;7.88;2.45;;;30.70;98.10;;;;;;5005846;28;20030;-69
2023/11/27 03:06:24;;;;;;;5.50;2.15;;;30.40;98.50;;;;;;5008140;28;20048;-71
2023/11/27 03:08:51;;;;;;;5.05;2.33;;;30.10;98.70;;;;;;4998946;28;20018;-70
2023/11/27 03:11:18;;;;;;;9.40;2.47;;;30.00;98.90;;;;;;5005042;28;20586;-66
2023/11/27 03:13:45;;;;;;;5.38;2.03;;;30.10;99.10;;;;;;5012819;28;20137;-69
2023/11/27 03:16:12;;;;;;;8.65;2.17;;;30.10;98.80;;;;;;5006893;28;20022;-68
2023/11/27 03:18:39;;;;;;;7.38;3.38;;;30.10;98.90;;;;;;5005808;28;20026;-68
2023/11/27 03:21:07;;;;;;;5.95;2.72;;;30.40;98.20;;;;;;5006651;28;20452;-69
2023/11/27 03:23:34;;;;;;;5.25;2.03;;;29.90;99.20;;;;;;5003208;28;20060;-68
2023/11/27 03:26:03;;;;;;;7.18;2.10;;;30.00;99.10;;;;;;5003507;28;20112;-68
2023/11/27 03:28:30;;;;;;;7.10;2.58;;;30.00;98.60;;;;;;5005362;28;20193;-68
2023/11/27 03:30:57;;;;;;;4.90;1.63;;;29.60;99.20;;;;;;5004715;28;20060;-68
2023/11/27 03:33:24;;;;;;;7.25;2.38;;;29.40;99.90;;;;;;5005943;28;20076;-68
2023/11/27 03:35:51;;;;;;;6.32;2.30;;;29.10;99.90;;;;;;5007857;28;20034;-69
2023/11/27 03:38:18;;;;;;;9.32;2.70;;;29.40;99.90;;;;;;5002330;28;20018;-68
2023/11/27 03:40:45;;;;;;;6.13;2.30;;;29.90;99.50;;;;;;5006989;28;20041;-68
2023/11/27 03:43:12;;;;;;;4.90;2.10;;;30.50;99.20;;;;;;4996252;28;20031;-68
2023/11/27 03:45:39;;;;;;;5.78;1.98;;;30.80;98.30;;;;;;5006688;28;20030;-68
2023/11/27 03:48:06;;;;;;;7.20;2.30;;;30.70;98.30;;;;;;5008315;28;20412;-67
2023/11/27 03:50:34;;;;;;;7.05;2.17;;;31.20;98.40;;;;;;5007370;28;20064;-68
2023/11/27 03:53:01;;;;;;;7.93;2.78;;;31.40;98.10;;;;;;5006452;28;20083;-68
2023/11/27 03:55:28;;;;;;;5.35;2.42;;;31.20;97.60;;;;;;5009371;28;20029;-68
2023/11/27 03:57:55;;;;;;;6.72;2.35;;;29.90;99.30;;;;;;5009616;28;20026;-68
2023/11/27 04:00:22;;;;;;;6.13;2.38;;;29.30;99.70;;;;;;5005799;28;20033;-67
2023/11/27 04:02:48;;;;;;;6.32;2.13;;;28.90;99.90;;;;;;5009039;28;20083;-68
2023/11/27 04:05:17;;;;;;;10.13;3.08;;;28.90;99.90;;;;;;5008056;28;20061;-68
2023/11/27 04:07:44;;;;;;;6.10;2.47;;;29.40;99.90;;;;;;5009794;28;20033;-68
2023/11/27 04:10:18;;;;;;;8.43;2.90;;;29.70;99.50;;;;;;5007991;28;20514;-69
2023/11/27 04:12:45;;;;;;;4.45;2.03;;;30.10;98.90;;;;;;5007807;28;20472;-68
2023/11/27 04:15:12;;;;;;;4.55;2.45;;;29.80;99.00;;;;;;5000914;28;20022;-66
2023/11/27 04:17:39;;;;;;;3.85;1.95;;;29.60;99.30;;;;;;5001941;28;20034;-67
2023/11/27 04:20:11;;;;;;;4.95;2.47;;;29.10;99.50;;;;;;5010407;28;20030;-68
2023/11/27 04:22:41;;;;;;;;;;;28.70;99.90;;;;;;5005151;28;20044;-67
2023/11/27 04:25:08;;;;;;;6.18;2.38;;;28.50;99.90;;;;;;5002994;28;20439;-67
2023/11/27 04:27:35;;;;;;;6.50;2.40;;;28.60;99.90;;;;;;5001592;28;20072;-69
2023/11/27 04:30:05;;;;;;;6.72;2.65;;;28.40;99.90;;;;;;5001568;28;20113;-68
2023/11/27 04:32:32;;;;;;;4.10;2.25;;;28.20;99.90;;;;;;4998905;28;20141;-66
2023/11/27 04:35:00;;;;;;;6.75;2.47;;;28.40;99.90;;;;;;4999893;28;20025;-67
2023/11/27 04:37:26;;;;;;;8.05;2.65;;;28.70;99.90;;;;;;4999559;28;20026;-68
2023/11/27 04:39:53;;;;;;;8.05;2.65;;;28.80;99.90;;;;;;4999962;28;20585;-67
2023/11/27 04:42:21;;;;;;;5.57;2.05;;;29.20;99.90;;;;;;4994009;28;20579;-66
2023/11/27 04:44:49;;;;;;;5.45;2.25;;;29.60;99.90;;;;;;4996902;28;20072;-66
2023/11/27 04:47:16;;;;;;;5.25;2.53;;;30.30;98.70;;;;;;4996782;28;20519;-66
2023/11/27 04:49:43;;;;;;;9.90;2.72;;;30.50;98.80;;;;;;4994557;28;20465;-67
2023/11/27 04:52:10;;;;;;;6.03;2.50;;;30.40;98.50;;;;;;4998391;28;20018;-66
2023/11/27 04:54:38;;;;;;;4.72;2.17;;;30.50;98.30;;;;;;4997926;28;20096;-66
2023/11/27 04:57:09;;;;;;;5.65;2.40;;;30.80;97.70;;;;;;4998572;28;20068;-66
2023/11/27 04:59:36;;;;;;;4.22;2.13;;;30.60;97.90;;;;;;4999495;28;20034;-66
2023/11/27 05:02:03;;;;;;;10.85;2.70;;;30.70;98.60;;;;;;4998954;28;20038;-65
2023/11/27 05:04:32;;;;;;;4.55;2.08;;;29.90;98.70;;;;;;4997843;28;20062;-66
2023/11/27 05:06:59;;;;;;;4.68;2.17;;;29.10;99.50;;;;;;4996257;28;20507;-66
2023/11/27 05:09:26;;;;;;;8.20;2.60;;;29.10;99.70;;;;;;4998551;28;20026;-67
2023/11/27 05:11:53;;;;;;;7.38;2.42;;;29.80;99.60;;;;;;4999665;28;20410;-66
2023/11/27 05:14:21;;;;;;;5.38;2.85;;;30.70;98.50;;;;;;4998796;28;20129;-70
2023/11/27 05:16:48;;;;;;;6.80;2.90;;;30.90;98.30;;;;;;4999678;28;20034;-66
2023/11/27 05:19:15;;;;;;;5.40;2.45;;;30.30;99.10;;;;;;5004003;28;20069;-70
2023/11/27 05:21:42;;;;;;;7.35;2.35;;;29.40;99.70;;;;;;5003350;28;20076;-74
2023/11/27 05:24:09;;;;;;;9.38;2.78;;;29.00;99.90;;;;;;5003845;28;20041;-68
2023/11/27 05:26:36;;;;;;;8.60;2.60;;;28.20;99.90;;;;;;5003961;28;20033;-68
2023/11/27 05:29:03;;;;;;;3.92;2.50;;;28.30;99.90;;;;;;5001655;28;20606;-66
2023/11/27 05:31:31;;;;;;;7.35;4.63;;;28.70;99.90;;;;;;5003412;28;20058;-70
2023/11/27 05:33:58;;;;;;;9.02;5.80;;;29.30;99.90;;;;;;5005317;28;20144;-70
2023/11/27 05:36:25;;;;;;;6.65;2.78;;;29.60;99.80;;;;;;5003159;28;20089;-71
2023/11/27 05:38:53;;;;;;;5.53;2.92;;;30.10;99.00;;;;;;4999943;28;20060;-68
2023/11/27 05:41:22;;;;;;;8.23;3.60;;;30.20;99.00;;;;;;4997639;28;20582;-66
2023/11/27 05:43:51;;;;;;;7.97;4.35;;;29.60;99.70;;;;;;4999122;28;20029;-70
2023/11/27 05:46:18;;;;;;;12.38;5.13;;;29.30;99.90;;;;;;5001854;28;20030;-72
2023/11/27 05:48:45;;;;;;;9.68;4.15;;;28.80;99.90;;;;;;5016826;28;20030;-71
2023/11/27 05:51:12;;;;;;;8.35;4.05;;;28.30;99.90;;;;;;4999288;28;20049;-69
2023/11/27 05:53:39;;;;;;;8.35;3.38;;;27.70;99.90;;;;;;5003020;28;20049;-71
2023/11/27 05:56:08;;;;;;;6.45;2.88;;;27.30;99.90;;;;;;5003368;28;20294;-69
2023/11/27 05:58:35;;;;;;;6.43;2.70;;;27.20;99.90;;;;;;5001272;28;20081;-70
2023/11/27 06:01:02;;;;;;;7.13;2.65;;;27.90;99.90;;;;;;5001166;28;21105;-70
2023/11/27 06:03:29;;;;;;;4.03;2.28;;;28.90;99.90;;;;;;5000492;28;20037;-70
2023/11/27 06:05:57;;;;;;;5.88;2.50;;;29.40;99.50;;;;;;4999250;28;20030;-70
2023/11/27 06:08:25;;;;;;;5.50;2.05;;;28.60;99.90;;;;;;5001114;28;20508;-70
2023/11/27 06:10:52;;;;;;;8.27;2.92;;;28.20;99.90;;;;;;4999446;28;20373;-68
2023/11/27 06:13:18;;;;;;;3.80;2.38;;;27.90;99.90;;;;;;5000654;28;20018;-71
2023/11/27 06:15:46;;;;;;;4.22;2.10;;;27.80;99.90;;;;;;4999734;28;20715;-70
2023/11/27 06:18:16;;;;;;;6.25;2.50;;;28.10;99.90;;;;;;5000869;28;20377;-69
2023/11/27 06:20:43;;;;;;;6.80;3.33;;;28.10;99.90;;;;;;4998898;28;20026;-69
2023/11/27 06:23:10;;;;;;;5.90;1.90;;;28.70;99.90;;;;;;5000318;28;20022;-69
2023/11/27 06:25:37;;;;;;;6.45;2.40;;;29.30;99.70;;;;;;5001112;28;20071;-70
2023/11/27 06:28:04;;;;;;;3.95;2.15;;;30.30;98.80;;;;;;4999161;28;20160;-71
2023/11/27 06:30:31;;;;;;;5.70;2.30;;;30.70;98.70;;;;;;4999771;28;20405;-69
2023/11/27 06:32:58;;;;;;;6.55;2.10;;;31.50;98.10;;;;;;4998112;28;20377;-70
2023/11/27 06:35:25;;;;;;;6.65;2.60;;;31.50;97.70;;;;;;5000600;28;20021;-70
2023/11/27 06:37:52;;;;;;;4.90;2.20;;;31.30;97.70;;;;;;5000584;28;20065;-70
2023/11/27 06:40:20;;;;;;;7.53;2.20;;;31.30;97.70;;;;;;5000298;28;20088;-69
2023/11/27 06:42:47;;;;;;;5.47;1.80;;;30.80;97.90;;;;;;5000086;28;20029;-68
2023/11/27 06:45:13;;;;;;;5.95;2.22;;;30.00;99.10;;;;;;4998800;28;20032;-68
2023/11/27 06:47:40;;;;;;;5.78;2.20;;;30.30;99.00;;;;;;5000828;28;20105;-69
2023/11/27 06:50:08;;;;;;;4.90;1.98;;;30.20;99.40;;;;;;5000933;28;20105;-69
2023/11/27 06:52:35;;;;;;;11.70;8.30;;;30.60;98.40;;;;;;4999878;28;20030;-69
2023/11/27 06:55:02;;;;;;;5.47;1.80;;;30.00;98.80;;;;;;4999906;28;20108;-71
2023/11/27 06:57:29;;;;;;;5.40;2.10;;;29.70;99.20;;;;;;5000058;28;20684;-67
2023/11/27 06:59:56;;;;;;;6.43;2.00;;;28.90;99.90;;;;;;5000333;28;20440;-75
2023/11/27 07:02:25;;;;;;;5.90;2.13;;;28.00;99.90;;;;;;5000950;28;20022;-70
2023/11/27 07:04:52;;;;;;;4.18;1.92;;;27.10;99.90;;;;;;5001395;28;20026;-70
2023/11/27 07:07:19;;;;;;;6.47;2.40;;;26.40;99.90;;;;;;5000211;28;20025;-67
2023/11/27 07:09:46;;;;;;;5.60;3.03;;;26.30;99.90;;;;;;5001541;28;20037;-66
2023/11/27 07:12:15;;;;;;;11.70;3.95;;;26.20;99.90;;;;;;5001683;28;20416;-68
2023/11/27 07:14:42;;;;;;;9.98;4.55;;;26.10;99.90;;;;;;5001691;28;20026;-69
2023/11/27 07:17:09;;;;;;;11.25;4.05;;;26.00;99.90;;;;;;4997964;28;20618;-68
2023/11/27 07:19:36;;;;;;;6.95;3.22;;;26.10;99.90;;;;;;4998794;28;20034;-69
2023/11/27 07:22:04;;;;;;;5.75;3.03;;;26.40;99.90;;;;;;4998736;28;20030;-69
2023/11/27 07:24:31;;;;;;;6.97;3.20;;;27.10;99.90;;;;;;4995960;28;20037;-68
2023/11/27 07:26:58;;;;;;;4.43;1.92;;;28.30;99.90;;;;;;4996942;28;20034;-67
2023/11/27 07:29:25;;;;;;;4.22;1.85;;;29.00;99.90;;;;;;4999058;28;20029;-71
2023/11/27 07:31:52;;;;;;;5.90;2.33;;;29.20;99.60;;;;;;5000499;28;20018;-69
2023/11/27 07:34:18;;;;;;;5.43;2.25;;;28.70;99.90;;;;;;4999054;28;20026;-70
2023/11/27 07:36:45;;;;;;;6.53;2.40;;;29.00;99.50;;;;;;4999553;28;20022;-72
2023/11/27 07:39:12;;;;;;;5.63;2.38;;;28.80;99.70;;;;;;4996127;28;20062;-68
2023/11/27 07:41:40;;;;;;;7.70;1.92;;;28.40;99.90;;;;;;4996968;28;20040;-68
2023/11/27 07:44:08;;;;;;;6.82;2.08;;;28.00;99.90;;;;;;4998230;28;20041;-69
2023/11/27 07:46:35;;;;;;;4.72;1.55;;;27.90;99.90;;;;;;4998957;28;20079;-67
2023/11/27 07:49:02;;;;;;;7.22;1.88;;;27.40;99.90;;;;;;4996964;28;20117;-69
2023/11/27 07:51:29;;;;;;;9.70;2.10;;;27.00;99.90;;;;;;4999370;28;20037;-66
2023/11/27 07:53:56;;;;;;;5.45;1.63;;;26.20;99.90;;;;;;4998062;28;20050;-67
2023/11/27 07:56:30;;;;;;;5.32;1.70;;;25.70;99.90;;;;;;4994638;28;20117;-67
2023/11/27 07:58:58;;;;;;;4.93;2.05;;;25.20;99.90;;;;;;4997466;28;20053;-69
2023/11/27 08:01:25;;;;;;;5.40;1.75;;;24.80;99.90;;;;;;5002207;28;20033;-69
2023/11/27 08:03:52;;;;;;;4.90;1.65;;;24.60;99.90;;;;;;5000789;28;20037;-68
2023/11/27 08:06:19;;;;;;;6.50;2.70;;;24.60;99.90;;;;;;4996336;28;20556;-69
2023/11/27 08:08:47;;;;;;;9.50;2.75;;;24.20;99.90;;;;;;4995868;28;20481;-66
2023/11/27 08:11:14;;;;;;;6.18;2.00;;;24.10;99.90;;;;;;4996723;28;20116;-67
2023/11/27 08:13:44;;;;;;;5.35;2.20;;;24.00;99.90;;;;;;4995926;28;20030;-68
2023/11/27 08:16:11;;;;;;;3.42;1.48;;;23.90;99.90;;;;;;4996221;28;20029;-67
2023/11/27 08:18:38;;;;;;;4.68;2.92;;;23.80;99.90;;;;;;4997749;28;20033;-71
2023/11/27 08:21:07;;;;;;;5.13;1.85;;;23.70;99.90;;;;;;4999747;28;20033;-66
2023/11/27 08:23:34;;;;;;;3.95;1.90;;;23.60;99.90;;;;;;4995726;28;20488;-68
2023/11/27 08:26:05;;;;;;;5.78;2.60;;;23.50;99.90;;;;;;4996258;28;20390;-66
2023/11/27 08:28:32;;;;;;;4.55;2.17;;;23.50;99.90;;;;;;4995589;28;20052;-66
2023/11/27 08:30:59;;;;;;;3.20;1.85;;;23.40;99.90;;;;;;4995010;28;20467;-67
2023/11/27 08:33:26;;;;;;;5.72;2.25;;;23.30;99.90;;;;;;4998289;28;20571;-66
2023/11/27 08:35:54;;;;;;;5.15;1.67;;;23.20;99.90;;;;;;4996848;28;20041;-67
2023/11/27 08:38:20;;;;;;;6.03;2.33;;;23.20;99.90;;;;;;4994631;28;20026;-69
2023/11/27 08:40:47;;;;;;;6.20;2.15;;;23.20;99.90;;;;;;4994793;28;20077;-68
2023/11/27 08:43:14;;;;;;;4.00;1.75;;;23.20;99.90;;;;;;4993134;28;20030;-68
2023/11/27 08:45:42;;;;;;;3.45;1.80;;;23.20;99.90;;;;;;4996335;28;20030;-66
2023/11/27 08:48:09;;;;;;;5.47;1.73;;;23.20;99.90;;;;;;4994529;28;20525;-70
2023/11/27 08:50:36;;;;;;;4.55;2.47;;;23.00;99.90;;;;;;4993181;28;20620;-67
2023/11/27 08:53:07;;;;;;;5.18;1.95;;;22.90;99.90;;;;;;4997635;28;20022;-64
2023/11/27 08:55:34;;;;;;;4.57;1.70;;;22.90;99.90;;;;;;5000437;28;20373;-67
2023/11/27 08:58:04;;;;;;;8.57;1.88;;;22.80;99.90;;;;;;4998166;28;20037;-69
2023/11/27 09:00:32;;;;;;;4.90;2.08;;;22.70;99.90;;;;;;4999937;28;20029;-66
2023/11/27 09:03:00;;;;;;;4.43;2.10;;;22.60;99.90;;;;;;4999132;28;20472;-69
2023/11/27 09:05:30;;;;;;;6.10;1.60;;;22.60;99.90;;;;;;4997852;28;20030;-68
2023/11/27 09:08:00;;;;;;;4.88;2.10;;;22.50;99.90;;;;;;4996271;28;20026;-67
2023/11/27 09:10:27;;;;;;;3.03;1.98;;;22.50;99.90;;;;;;4998135;28;20069;-67
2023/11/27 09:12:55;;;;;;;8.70;1.75;;;22.50;99.90;;;;;;4998453;28;20049;-69
2023/11/27 09:15:22;;;;;;;4.38;1.88;;;22.60;99.90;;;;;;4994210;28;20404;-67
2023/11/27 09:17:49;;;;;;;3.88;1.60;;;22.60;99.90;;;;;;4998811;28;20022;-67
2023/11/27 09:20:16;;;;;;;3.80;1.70;;;22.50;99.90;;;;;;5001513;28;20033;-66
2023/11/27 09:22:43;;;;;;;3.10;1.50;;;22.50;99.90;;;;;;4997203;28;20034;-68
2023/11/27 09:25:12;;;;;;;5.70;1.60;;;22.50;99.90;;;;;;4998981;28;20018;-68
2023/11/27 09:27:48;;;;;;;3.17;1.77;;;22.50;99.90;;;;;;4999645;28;20048;-68
2023/11/27 09:30:15;;;;;;;8.02;1.70;;;22.50;99.90;;;;;;5012488;28;20068;-69
2023/11/27 09:32:42;;;;;;;5.18;1.65;;;22.50;99.90;;;;;;4998435;28;20034;-69
2023/11/27 09:35:15;;;;;;;4.70;3.13;;;22.50;99.90;;;;;;4998443;28;20148;-67
2023/11/27 09:37:42;;;;;;;4.32;2.10;;;22.50;99.90;;;;;;4997512;28;20414;-69
2023/11/27 09:40:11;;;;;;;4.38;1.70;;;22.50;99.90;;;;;;4997877;28;20073;-68
2023/11/27 09:42:40;;;;;;;6.85;2.65;;;22.40;99.90;;;;;;4998906;28;20033;-68
2023/11/27 09:45:12;;;;;;;2.75;1.45;;;22.40;99.90;;;;;;4997799;28;20059;-69
2023/11/27 09:47:43;;;;;;;6.70;2.10;;;22.30;99.90;;;;;;4998469;28;20057;-68
2023/11/27 09:50:13;;;;;;;5.57;1.77;;;22.30;99.90;;;;;;4999390;28;20113;-69
2023/11/27 09:52:54;;;;;;;3.78;1.58;;;22.30;99.90;;;;;;4997432;28;20097;-69
2023/11/27 09:55:21;;;;;;;3.45;1.42;;;22.40;99.90;;;;;;4997378;28;20030;-68
2023/11/27 09:57:49;;;;;;;4.25;1.75;;;22.40;99.90;;;;;;4998990;28;20113;-70
2023/11/27 10:00:20;;;;;;;4.65;1.80;;;22.50;99.90;;;;;;4996527;28;20038;-68
2023/11/27 10:02:51;;;;;;;5.75;1.70;;;22.50;99.90;;;;;;4998934;28;20049;-68
2023/11/27 10:05:22;;;;;;;2.75;1.33;;;22.60;99.90;;;;;;4996721;28;20424;-66
2023/11/27 10:07:50;;;;;;;5.00;1.58;;;22.70;99.90;;;;;;4996079;28;20034;-67
2023/11/27 10:10:25;;;;;;;4.90;1.83;;;22.70;99.90;;;;;;4994629;28;20355;-69
2023/11/27 10:13:12;;;;;;;4.00;2.15;;;22.60;99.90;;;;;;4997781;28;20026;-69
2023/11/27 10:15:39;;;;;;;3.63;1.83;;;22.60;99.90;;;;;;5000786;28;20022;-68
2023/11/27 10:18:08;;;;;;;4.47;1.83;;;22.50;99.90;;;;;;5002956;28;20030;-68
2023/11/27 10:20:35;;;;;;;5.80;1.85;;;22.40;99.90;;;;;;5000660;28;20053;-68
2023/11/27 10:23:02;;;;;;;3.15;1.67;;;22.30;99.90;;;;;;5000861;28;20025;-67
2023/11/27 10:25:29;;;;;;;4.80;1.30;;;22.40;99.90;;;;;;4997386;28;20123;-68
2023/11/27 10:28:00;;;;;;;5.32;1.88;;;22.30;99.90;;;;;;5004743;28;20034;-69
2023/11/27 10:30:30;;;;;;;4.93;1.88;;;22.30;99.90;;;;;;5006024;28;20064;-68
2023/11/27 10:32:57;;;;;;;4.07;1.88;;;22.20;99.90;;;;;;4999189;28;20402;-68
2023/11/27 10:35:32;;;;;;;4.30;1.70;;;22.20;99.90;;;;;;5001295;28;20761;-69
2023/11/27 10:37:59;;;;;;;5.88;2.00;;;22.30;99.90;;;;;;4997016;28;20064;-69
2023/11/27 10:40:26;;;;;;;7.57;1.83;;;22.20;99.90;;;;;;4998149;28;20053;-69
2023/11/27 10:43:00;;;;;;;4.25;1.60;;;22.20;99.90;;;;;;4997169;28;20041;-70
2023/11/27 10:45:28;;;;;;;3.10;1.65;;;22.20;99.90;;;;;;4996590;28;20034;-70
2023/11/27 10:47:56;;;;;;;3.83;1.77;;;22.20;99.90;;;;;;4997950;28;20057;-69
2023/11/27 10:50:25;;;;;;;5.97;1.75;;;22.20;99.90;;;;;;4998204;28;20108;-70
2023/11/27 10:52:52;;;;;;;3.53;1.50;;;22.10;99.90;;;;;;4994640;28;20022;-71
2023/11/27 10:55:20;;;;;;;2.45;1.42;;;22.20;99.90;;;;;;4995572;28;20022;-70
2023/11/27 10:57:49;;;;;;;4.00;1.60;;;22.20;99.90;;;;;;4996452;28;20032;-70
2023/11/27 11:00:32;;;;;;;4.18;1.40;;;22.20;99.90;;;;;;4995913;28;20029;-70
2023/11/27 11:03:07;;;;;;;5.32;1.85;;;22.30;99.90;;;;;;4994966;28;20037;-69
2023/11/27 11:05:53;;;;;;;7.78;2.00;;;22.20;99.90;;;;;;4995344;28;20025;-70
2023/11/27 11:08:27;;;;;;;4.18;1.50;;;22.30;99.90;;;;;;4999254;28;20524;-69
2023/11/27 11:10:56;;;;;;;4.25;1.40;;;22.30;99.90;;;;;;5002335;28;20029;-70
2023/11/27 11:13:30;;;;;;;2.83;1.55;;;22.50;99.90;;;;;;5000690;28;20021;-70
2023/11/27 11:16:36;;;;;;;2.83;1.40;;;22.50;99.90;;;;;;4999210;28;20567;-70
2023/11/27 11:19:21;;;;;;;3.95;1.70;;;22.40;99.90;;;;;;4981501;28;20038;-69
2023/11/27 11:22:26;;;;;;;2.85;1.52;;;22.20;99.90;;;;;;4979799;28;20033;-69
2023/11/27 11:25:13;;;;;;;3.92;1.70;;;22.20;99.90;;;;;;4982318;28;20557;-70
2023/11/27 11:28:12;;;;;;;6.32;2.05;;;22.20;99.90;;;;;;4980234;28;20030;-68
2023/11/27 11:30:39;;;;;;;6.65;2.00;;;22.30;99.90;;;;;;4884887;29;20055;-69
2023/11/27 11:33:08;;;;;;;7.00;1.50;;;22.30;99.90;;;;;;4885384;29;20433;-69
2023/11/27 11:35:36;;;;;;;4.47;1.77;;;22.30;99.90;;;;;;4883639;29;20044;-70
2023/11/27 11:38:24;;;;;;;5.57;1.85;;;22.20;99.90;;;;;;4886894;29;20042;-69
2023/11/27 11:40:51;;;;;;;6.53;1.92;;;22.10;99.90;;;;;;4882754;29;20053;-69
2023/11/27 11:43:22;;;;;;;6.20;1.88;;;22.10;99.90;;;;;;4886635;29;20036;-69
2023/11/27 11:45:49;;;;;;;5.07;1.98;;;22.10;99.90;;;;;;4885035;29;20654;-69
2023/11/27 11:48:18;;;;;;;5.57;1.42;;;22.10;99.90;;;;;;4884458;29;20075;-69
2023/11/27 11:50:47;;;;;;;2.83;1.50;;;22.10;99.90;;;;;;4882717;29;20519;-69
2023/11/27 11:53:18;;;;;;;4.22;1.58;;;22.10;99.90;;;;;;4883825;29;20066;-69
2023/11/27 11:55:50;;;;;;;5.35;1.65;;;22.20;99.90;;;;;;4906353;29;20039;-69
2023/11/27 11:58:19;;;;;;;4.57;1.70;;;22.10;99.90;;;;;;4921815;29;20573;-69
2023/11/27 12:00:47;;;;;;;6.80;1.83;;;22.10;99.90;;;;;;4922235;29;20068;-69
2023/11/27 12:03:16;;;;;;;3.65;1.63;;;22.00;99.90;;;;;;4921814;29;20047;-69
2023/11/27 12:06:13;;;;;;;4.22;1.65;;;22.00;99.90;;;;;;4920832;29;20066;-70
2023/11/27 12:08:48;;;;;;;6.47;2.40;;;22.00;99.90;;;;;;4998233;28;20117;-68
2023/11/27 12:11:16;;;;;;;5.50;1.67;;;22.00;99.90;;;;;;5002640;28;20032;-68
2023/11/27 12:13:44;;;;;;;5.93;1.80;;;22.00;99.90;;;;;;4997607;28;20036;-69
2023/11/27 12:16:12;;;;;;;4.15;1.90;;;22.00;99.90;;;;;;5013194;28;20100;-66
2023/11/27 12:18:43;;;;;;;4.78;1.88;;;22.00;99.90;;;;;;4998877;28;20753;-65
2023/11/27 12:21:16;;;;;;;5.63;1.80;;;21.90;99.90;;;;;;4998299;28;20734;-65
2023/11/27 12:23:47;;;;;;;8.63;1.98;;;21.80;99.90;;;;;;4998768;28;20097;-66
2023/11/27 12:26:22;;;;;;;6.20;1.80;;;21.70;99.90;;;;;;5000353;28;20399;-64
2023/11/27 12:28:50;;;;;;;3.60;1.40;;;21.70;99.90;;;;;;4997803;28;20109;-65
2023/11/27 12:31:18;;;;;;;5.15;1.90;;;21.60;99.90;;;;;;4996894;28;20026;-66
2023/11/27 12:33:48;;;;;;;6.75;1.88;;;21.60;99.90;;;;;;4998438;28;20888;-66
2023/11/27 12:36:20;;;;;;;6.32;1.77;;;21.50;99.90;;;;;;4995570;28;20025;-68
2023/11/27 12:38:52;;;;;;;8.38;2.10;;;21.40;99.90;;;;;;5014804;23;20021;31
2023/11/27 12:41:29;;;;;;;6.03;1.88;;;21.30;99.90;;;;;;4995671;28;20049;-68
2023/11/27 12:44:19;;;;;;;4.78;1.75;;;21.20;99.90;;;;;;4997840;28;20037;-63
2023/11/27 12:46:48;;;;;;;9.77;2.40;;;21.20;99.90;;;;;;4994647;28;20057;-66
2023/11/27 12:49:26;;;;;;;5.88;2.03;;;21.30;99.90;;;;;;4995062;28;20176;-66
2023/11/27 12:52:27;;;;;;;5.95;1.92;;;21.40;99.90;;;;;;4996865;28;20026;-67
2023/11/27 12:54:54;;;;;;;6.65;2.00;;;21.30;99.90;;;;;;4998146;28;20072;-66
2023/11/27 12:57:22;;;;;;;6.18;1.98;;;21.30;99.90;;;;;;4998645;28;20092;-66
2023/11/27 12:59:49;;;;;;;6.00;2.00;;;21.20;99.90;;;;;;4999098;28;20104;-65
2023/11/27 13:02:25;;;;;;;5.28;1.80;;;21.30;99.90;;;;;;4997722;28;20613;-64
2023/11/27 13:04:53;;;;;;;6.70;1.90;;;21.40;99.90;;;;;;4998897;28;20030;-64
2023/11/27 13:07:21;;;;;;;4.82;1.73;;;21.40;99.90;;;;;;4999874;28;20436;-65
2023/11/27 13:09:52;;;;;;;5.68;1.95;;;21.50;99.90;;;;;;4999396;28;20025;-65
2023/11/27 13:12:19;;;;;;;4.07;1.70;;;21.40;99.90;;;;;;5000985;28;20075;-67
2023/11/27 13:14:48;;;;;;;4.88;2.08;;;21.30;99.90;;;;;;4999368;28;20593;-66
2023/11/27 13:17:18;;;;;;;7.72;2.65;;;21.40;99.90;;;;;;4996758;28;20045;-66
2023/11/27 13:19:53;;;;;;;5.28;1.75;;;21.50;99.90;;;;;;5000040;28;20373;-66
2023/11/27 13:22:21;;;;;;;4.13;2.08;;;21.40;99.90;;;;;;5000521;28;20091;-65
2023/11/27 13:24:51;;;;;;;6.22;2.30;;;21.40;99.90;;;;;;4997745;28;20065;-65
2023/11/27 13:27:21;;;;;;;5.65;2.00;;;21.40;99.90;;;;;;5001889;28;20045;-66